LEVC/VLC METAR and TAF weather

Enter ICAO airport designator
Station Type Date Time Source
LEVC METAR 2019/04/24 16:00 UTC NOAA

LEVC 241600Z 11009KT 9999 BKN060 20/08 Q1008 NOSIG


Station Type Date Time Source
LEVC Decoded METAR 2019/04/24 16:00 UTC NOAA

Valencia / Aeropuerto, Spain (LEVC) 39-30N 000-28W 62M
Apr 24, 2019 - 12:00 PM EDT / 2019.04.24 1600 UTC
Wind: from the ESE (110 degrees) at 10 MPH (9 KT):0
Visibility: greater than 7 mile(s):0
Sky conditions: mostly cloudy
Temperature: 68 F (20 C)
Dew Point: 46 F (8 C)
Relative Humidity: 45%
Pressure (altimeter): 29.77 in. Hg (1008 hPa)
ob: LEVC 241600Z 11009KT 9999 BKN060 20/08 Q1008 NOSIG
cycle: 16

Station Type Date Time Source
LEVC TAF 2019/04/24 14:55 UTC NOAA

TAF
AMD LEVC 241449Z 2414/2512 12010KT 9999 FEW030 TX23/2415Z TN12/2506Z
BECMG 2419/2421 VRB05KT
BECMG 2507/2509 25015G30KT

Example: see airport list